sensor_id;sensor_type;location;lat;lon;timestamp;temperature;humidity
50804;DHT22;37205;51.434;6.756;2023-12-29T00:01:21;10.90;99.90
50804;DHT22;37205;51.434;6.756;2023-12-29T00:03:46;10.90;99.90
50804;DHT22;37205;51.434;6.756;2023-12-29T00:06:12;10.90;99.90
50804;DHT22;37205;51.434;6.756;2023-12-29T00:08:37;10.90;99.90
50804;DHT22;37205;51.434;6.756;2023-12-29T00:11:03;11.00;99.90
50804;DHT22;37205;51.434;6.756;2023-12-29T00:13:28;11.00;99.90
50804;DHT22;37205;51.434;6.756;2023-12-29T00:15:55;11.00;99.90
50804;DHT22;37205;51.434;6.756;2023-12-29T00:18:21;11.00;99.90
50804;DHT22;37205;51.434;6.756;2023-12-29T00:20:47;11.00;99.90
50804;DHT22;37205;51.434;6.756;2023-12-29T00:23:13;11.00;99.90
50804;DHT22;37205;51.434;6.756;2023-12-29T00:25:39;11.00;99.90
50804;DHT22;37205;51.434;6.756;2023-12-29T00:28:05;11.00;99.90
50804;DHT22;37205;51.434;6.756;2023-12-29T00:30:31;11.00;99.90
50804;DHT22;37205;51.434;6.756;2023-12-29T00:32:57;11.00;99.90
50804;DHT22;37205;51.434;6.756;2023-12-29T00:35:22;11.00;99.90
50804;DHT22;37205;51.434;6.756;2023-12-29T00:37:49;11.10;99.90
50804;DHT22;37205;51.434;6.756;2023-12-29T00:40:15;11.10;99.90
50804;DHT22;37205;51.434;6.756;2023-12-29T00:42:40;11.10;99.90
50804;DHT22;37205;51.434;6.756;2023-12-29T00:45:07;11.10;99.90
50804;DHT22;37205;51.434;6.756;2023-12-29T00:47:32;11.10;99.90
50804;DHT22;37205;51.434;6.756;2023-12-29T00:49:58;11.10;99.90
50804;DHT22;37205;51.434;6.756;2023-12-29T00:52:24;11.10;99.90
50804;DHT22;37205;51.434;6.756;2023-12-29T00:54:49;11.10;99.90
50804;DHT22;37205;51.434;6.756;2023-12-29T00:57:15;11.10;99.90
50804;DHT22;37205;51.434;6.756;2023-12-29T00:59:41;11.10;99.90
50804;DHT22;37205;51.434;6.756;2023-12-29T01:02:07;11.10;99.90
50804;DHT22;37205;51.434;6.756;2023-12-29T01:04:33;11.20;99.90
50804;DHT22;37205;51.434;6.756;2023-12-29T01:06:58;11.10;99.90
50804;DHT22;37205;51.434;6.756;2023-12-29T01:09:25;11.20;99.90
50804;DHT22;37205;51.434;6.756;2023-12-29T01:11:51;11.10;99.90
50804;DHT22;37205;51.434;6.756;2023-12-29T01:14:16;11.10;99.90
50804;DHT22;37205;51.434;6.756;2023-12-29T01:16:42;11.10;99.90
50804;DHT22;37205;51.434;6.756;2023-12-29T01:19:07;11.10;99.90
50804;DHT22;37205;51.434;6.756;2023-12-29T01:21:33;11.10;99.90
50804;DHT22;37205;51.434;6.756;2023-12-29T01:24:00;11.10;99.90
50804;DHT22;37205;51.434;6.756;2023-12-29T01:26:26;11.10;99.90
50804;DHT22;37205;51.434;6.756;2023-12-29T01:28:52;11.10;99.90
50804;DHT22;37205;51.434;6.756;2023-12-29T01:31:17;11.10;99.90
50804;DHT22;37205;51.434;6.756;2023-12-29T01:33:43;11.10;99.90
50804;DHT22;37205;51.434;6.756;2023-12-29T01:36:08;11.00;99.90
50804;DHT22;37205;51.434;6.756;2023-12-29T01:38:34;11.10;99.90
50804;DHT22;37205;51.434;6.756;2023-12-29T01:40:59;11.00;99.90
50804;DHT22;37205;51.434;6.756;2023-12-29T01:43:25;11.00;99.90
50804;DHT22;37205;51.434;6.756;2023-12-29T01:45:50;11.00;99.90
50804;DHT22;37205;51.434;6.756;2023-12-29T01:48:16;11.00;99.90
50804;DHT22;37205;51.434;6.756;2023-12-29T01:50:44;11.00;99.90
50804;DHT22;37205;51.434;6.756;2023-12-29T01:53:10;11.00;99.90
50804;DHT22;37205;51.434;6.756;2023-12-29T01:55:37;10.90;99.90
50804;DHT22;37205;51.434;6.756;2023-12-29T01:58:03;11.00;1.00
50804;DHT22;37205;51.434;6.756;2023-12-29T02:00:28;11.00;1.00
50804;DHT22;37205;51.434;6.756;2023-12-29T02:02:54;10.90;1.00
50804;DHT22;37205;51.434;6.756;2023-12-29T02:05:22;10.80;1.00
50804;DHT22;37205;51.434;6.756;2023-12-29T02:07:51;10.80;1.00
50804;DHT22;37205;51.434;6.756;2023-12-29T02:10:18;10.70;1.00
50804;DHT22;37205;51.434;6.756;2023-12-29T02:12:47;10.50;1.00
50804;DHT22;37205;51.434;6.756;2023-12-29T02:15:14;10.50;1.00
50804;DHT22;37205;51.434;6.756;2023-12-29T02:17:44;10.50;18.00
50804;DHT22;37205;51.434;6.756;2023-12-29T02:20:11;10.50;9.80
50804;DHT22;37205;51.434;6.756;2023-12-29T02:22:37;10.50;1.00
50804;DHT22;37205;51.434;6.756;2023-12-29T02:25:03;10.50;1.00
50804;DHT22;37205;51.434;6.756;2023-12-29T02:30:32;10.50;14.30
50804;DHT22;37205;51.434;6.756;2023-12-29T02:33:05;10.40;25.50
50804;DHT22;37205;51.434;6.756;2023-12-29T02:35:34;10.40;50.60
50804;DHT22;37205;51.434;6.756;2023-12-29T02:38:01;10.30;90.00
50804;DHT22;37205;51.434;6.756;2023-12-29T02:40:27;10.30;89.60
50804;DHT22;37205;51.434;6.756;2023-12-29T02:42:53;10.20;93.80
50804;DHT22;37205;51.434;6.756;2023-12-29T02:45:18;10.20;80.30
50804;DHT22;37205;51.434;6.756;2023-12-29T02:47:44;10.20;96.50
50804;DHT22;37205;51.434;6.756;2023-12-29T02:50:10;10.20;96.90
50804;DHT22;37205;51.434;6.756;2023-12-29T02:52:36;10.20;90.00
50804;DHT22;37205;51.434;6.756;2023-12-29T02:55:02;10.20;94.20
50804;DHT22;37205;51.434;6.756;2023-12-29T02:57:28;10.20;97.00
50804;DHT22;37205;51.434;6.756;2023-12-29T02:59:55;10.30;54.80
50804;DHT22;37205;51.434;6.756;2023-12-29T03:02:21;10.30;52.30
50804;DHT22;37205;51.434;6.756;2023-12-29T03:04:47;10.30;54.00
50804;DHT22;37205;51.434;6.756;2023-12-29T03:07:12;10.30;64.70
50804;DHT22;37205;51.434;6.756;2023-12-29T03:09:38;10.30;62.90
50804;DHT22;37205;51.434;6.756;2023-12-29T03:12:04;10.30;63.80
50804;DHT22;37205;51.434;6.756;2023-12-29T03:14:29;10.30;53.70
50804;DHT22;37205;51.434;6.756;2023-12-29T03:16:55;10.30;52.40
50804;DHT22;37205;51.434;6.756;2023-12-29T03:19:20;10.30;52.40
50804;DHT22;37205;51.434;6.756;2023-12-29T03:21:46;10.30;54.40
50804;DHT22;37205;51.434;6.756;2023-12-29T03:24:11;10.30;51.50
50804;DHT22;37205;51.434;6.756;2023-12-29T03:26:37;10.30;38.70
50804;DHT22;37205;51.434;6.756;2023-12-29T03:29:03;10.30;41.10
50804;DHT22;37205;51.434;6.756;2023-12-29T03:31:28;10.40;35.70
50804;DHT22;37205;51.434;6.756;2023-12-29T03:33:54;10.40;38.10
50804;DHT22;37205;51.434;6.756;2023-12-29T03:36:19;10.40;26.00
50804;DHT22;37205;51.434;6.756;2023-12-29T03:38:45;10.40;24.20
50804;DHT22;37205;51.434;6.756;2023-12-29T03:41:10;10.40;16.40
50804;DHT22;37205;51.434;6.756;2023-12-29T03:43:36;10.40;18.50
50804;DHT22;37205;51.434;6.756;2023-12-29T03:46:01;10.50;1.60
50804;DHT22;37205;51.434;6.756;2023-12-29T03:48:27;10.50;1.00
50804;DHT22;37205;51.434;6.756;2023-12-29T03:50:52;10.50;1.00
50804;DHT22;37205;51.434;6.756;2023-12-29T03:53:18;10.50;1.00
50804;DHT22;37205;51.434;6.756;2023-12-29T03:55:44;10.60;1.00
50804;DHT22;37205;51.434;6.756;2023-12-29T03:58:10;10.50;1.00
50804;DHT22;37205;51.434;6.756;2023-12-29T04:00:36;10.50;1.00
50804;DHT22;37205;51.434;6.756;2023-12-29T04:03:07;10.50;1.00
50804;DHT22;37205;51.434;6.756;2023-12-29T04:05:33;10.40;1.00
50804;DHT22;37205;51.434;6.756;2023-12-29T04:07:59;10.50;1.00
50804;DHT22;37205;51.434;6.756;2023-12-29T04:10:24;10.40;1.00
50804;DHT22;37205;51.434;6.756;2023-12-29T04:12:50;10.50;1.00
50804;DHT22;37205;51.434;6.756;2023-12-29T04:15:15;10.50;1.00
50804;DHT22;37205;51.434;6.756;2023-12-29T04:17:41;10.50;1.00
50804;DHT22;37205;51.434;6.756;2023-12-29T04:20:06;10.50;1.00
50804;DHT22;37205;51.434;6.756;2023-12-29T04:22:32;10.60;1.00
50804;DHT22;37205;51.434;6.756;2023-12-29T04:24:59;10.50;1.00
50804;DHT22;37205;51.434;6.756;2023-12-29T04:27:24;10.60;1.00
50804;DHT22;37205;51.434;6.756;2023-12-29T04:29:50;10.70;1.00
50804;DHT22;37205;51.434;6.756;2023-12-29T04:32:15;10.70;1.00
50804;DHT22;37205;51.434;6.756;2023-12-29T04:34:41;10.70;1.00
50804;DHT22;37205;51.434;6.756;2023-12-29T04:37:06;10.70;1.00
50804;DHT22;37205;51.434;6.756;2023-12-29T04:39:32;10.70;1.00
50804;DHT22;37205;51.434;6.756;2023-12-29T04:41:57;10.70;1.00
50804;DHT22;37205;51.434;6.756;2023-12-29T04:44:23;10.60;1.00
50804;DHT22;37205;51.434;6.756;2023-12-29T04:46:48;10.60;1.00
50804;DHT22;37205;51.434;6.756;2023-12-29T04:49:14;10.60;1.00
50804;DHT22;37205;51.434;6.756;2023-12-29T04:51:39;10.60;1.00
50804;DHT22;37205;51.434;6.756;2023-12-29T04:54:05;10.60;1.00
50804;DHT22;37205;51.434;6.756;2023-12-29T04:56:31;10.50;1.00
50804;DHT22;37205;51.434;6.756;2023-12-29T04:58:56;10.50;1.00
50804;DHT22;37205;51.434;6.756;2023-12-29T05:01:22;10.50;1.00
50804;DHT22;37205;51.434;6.756;2023-12-29T05:03:47;10.60;1.00
50804;DHT22;37205;51.434;6.756;2023-12-29T05:06:13;10.50;1.00
50804;DHT22;37205;51.434;6.756;2023-12-29T05:08:38;10.50;1.00
50804;DHT22;37205;51.434;6.756;2023-12-29T05:11:04;10.50;1.00
50804;DHT22;37205;51.434;6.756;2023-12-29T05:13:29;10.60;1.00
50804;DHT22;37205;51.434;6.756;2023-12-29T05:15:55;10.60;1.00
50804;DHT22;37205;51.434;6.756;2023-12-29T05:18:20;10.60;1.00
50804;DHT22;37205;51.434;6.756;2023-12-29T05:20:46;10.50;1.00
50804;DHT22;37205;51.434;6.756;2023-12-29T05:23:11;10.50;1.00
50804;DHT22;37205;51.434;6.756;2023-12-29T05:25:37;10.50;1.00
50804;DHT22;37205;51.434;6.756;2023-12-29T05:28:03;10.60;1.00
50804;DHT22;37205;51.434;6.756;2023-12-29T05:30:29;10.60;1.00
50804;DHT22;37205;51.434;6.756;2023-12-29T05:32:57;10.60;1.00
50804;DHT22;37205;51.434;6.756;2023-12-29T05:35:22;10.50;1.00
50804;DHT22;37205;51.434;6.756;2023-12-29T05:37:48;10.60;1.00
50804;DHT22;37205;51.434;6.756;2023-12-29T05:40:13;10.60;1.00
50804;DHT22;37205;51.434;6.756;2023-12-29T05:42:39;10.60;1.00
50804;DHT22;37205;51.434;6.756;2023-12-29T05:45:04;10.60;1.00
50804;DHT22;37205;51.434;6.756;2023-12-29T05:47:30;10.60;1.00
50804;DHT22;37205;51.434;6.756;2023-12-29T05:49:55;10.50;1.00
50804;DHT22;37205;51.434;6.756;2023-12-29T05:52:22;10.50;1.00
50804;DHT22;37205;51.434;6.756;2023-12-29T05:54:48;10.50;1.00
50804;DHT22;37205;51.434;6.756;2023-12-29T05:57:13;10.50;1.00
50804;DHT22;37205;51.434;6.756;2023-12-29T05:59:39;10.50;1.00
50804;DHT22;37205;51.434;6.756;2023-12-29T06:02:05;10.40;1.00
50804;DHT22;37205;51.434;6.756;2023-12-29T06:04:30;10.50;1.00
50804;DHT22;37205;51.434;6.756;2023-12-29T06:06:56;10.50;1.00
50804;DHT22;37205;51.434;6.756;2023-12-29T06:09:22;10.50;1.00
50804;DHT22;37205;51.434;6.756;2023-12-29T06:11:47;10.50;1.00
50804;DHT22;37205;51.434;6.756;2023-12-29T06:14:13;10.50;1.00
50804;DHT22;37205;51.434;6.756;2023-12-29T06:16:38;10.50;1.00
50804;DHT22;37205;51.434;6.756;2023-12-29T06:19:04;10.40;1.00
50804;DHT22;37205;51.434;6.756;2023-12-29T06:21:29;10.40;1.00
50804;DHT22;37205;51.434;6.756;2023-12-29T06:23:55;10.40;1.00
50804;DHT22;37205;51.434;6.756;2023-12-29T06:26:20;10.30;1.00
50804;DHT22;37205;51.434;6.756;2023-12-29T06:28:47;10.30;1.00
50804;DHT22;37205;51.434;6.756;2023-12-29T06:31:13;10.30;1.00
50804;DHT22;37205;51.434;6.756;2023-12-29T06:33:42;10.30;1.00
50804;DHT22;37205;51.434;6.756;2023-12-29T06:36:08;10.30;1.00
50804;DHT22;37205;51.434;6.756;2023-12-29T06:38:34;10.30;1.00
50804;DHT22;37205;51.434;6.756;2023-12-29T06:41:03;10.40;1.00
50804;DHT22;37205;51.434;6.756;2023-12-29T06:43:29;10.40;1.00
50804;DHT22;37205;51.434;6.756;2023-12-29T06:45:55;10.40;1.00
50804;DHT22;37205;51.434;6.756;2023-12-29T06:48:20;10.50;1.00
50804;DHT22;37205;51.434;6.756;2023-12-29T06:50:46;10.50;1.00
50804;DHT22;37205;51.434;6.756;2023-12-29T06:53:11;10.50;1.00
50804;DHT22;37205;51.434;6.756;2023-12-29T06:55:37;10.60;1.00
50804;DHT22;37205;51.434;6.756;2023-12-29T06:58:04;10.60;1.00
50804;DHT22;37205;51.434;6.756;2023-12-29T07:00:29;10.60;1.00
50804;DHT22;37205;51.434;6.756;2023-12-29T07:02:55;10.50;1.00
50804;DHT22;37205;51.434;6.756;2023-12-29T07:05:20;10.60;1.00
50804;DHT22;37205;51.434;6.756;2023-12-29T07:07:46;10.60;1.00
50804;DHT22;37205;51.434;6.756;2023-12-29T07:10:12;10.70;1.00
50804;DHT22;37205;51.434;6.756;2023-12-29T07:12:40;10.60;1.00
50804;DHT22;37205;51.434;6.756;2023-12-29T07:15:06;10.60;1.00
50804;DHT22;37205;51.434;6.756;2023-12-29T07:17:31;10.50;1.00
50804;DHT22;37205;51.434;6.756;2023-12-29T07:19:57;10.50;1.00
50804;DHT22;37205;51.434;6.756;2023-12-29T07:22:22;10.40;14.50
50804;DHT22;37205;51.434;6.756;2023-12-29T07:24:48;10.30;42.20
50804;DHT22;37205;51.434;6.756;2023-12-29T07:27:13;10.30;49.00
50804;DHT22;37205;51.434;6.756;2023-12-29T07:29:39;10.30;55.00
50804;DHT22;37205;51.434;6.756;2023-12-29T07:32:04;10.30;64.10
50804;DHT22;37205;51.434;6.756;2023-12-29T07:34:30;10.30;83.70
50804;DHT22;37205;51.434;6.756;2023-12-29T07:36:57;10.20;87.70
50804;DHT22;37205;51.434;6.756;2023-12-29T07:39:24;10.30;87.70
50804;DHT22;37205;51.434;6.756;2023-12-29T07:41:49;10.20;92.20
50804;DHT22;37205;51.434;6.756;2023-12-29T07:44:16;10.20;94.60
50804;DHT22;37205;51.434;6.756;2023-12-29T07:46:43;10.20;94.40
50804;DHT22;37205;51.434;6.756;2023-12-29T07:49:09;10.20;96.60
50804;DHT22;37205;51.434;6.756;2023-12-29T07:51:39;10.20;92.70
50804;DHT22;37205;51.434;6.756;2023-12-29T07:54:06;10.20;87.40
50804;DHT22;37205;51.434;6.756;2023-12-29T07:56:31;10.20;86.70
50804;DHT22;37205;51.434;6.756;2023-12-29T07:58:57;10.20;80.30
50804;DHT22;37205;51.434;6.756;2023-12-29T08:01:23;10.20;90.30
50804;DHT22;37205;51.434;6.756;2023-12-29T08:03:48;10.20;87.70
50804;DHT22;37205;51.434;6.756;2023-12-29T08:06:14;10.30;93.00
50804;DHT22;37205;51.434;6.756;2023-12-29T08:08:40;10.30;94.50
50804;DHT22;37205;51.434;6.756;2023-12-29T08:11:05;10.30;84.70
50804;DHT22;37205;51.434;6.756;2023-12-29T08:13:31;10.30;91.90
50804;DHT22;37205;51.434;6.756;2023-12-29T08:15:56;10.30;82.90
50804;DHT22;37205;51.434;6.756;2023-12-29T08:18:22;10.30;92.90
50804;DHT22;37205;51.434;6.756;2023-12-29T08:20:48;10.30;93.80
50804;DHT22;37205;51.434;6.756;2023-12-29T08:23:13;10.30;96.70
50804;DHT22;37205;51.434;6.756;2023-12-29T08:25:39;10.30;97.70
50804;DHT22;37205;51.434;6.756;2023-12-29T08:28:04;10.30;94.60
50804;DHT22;37205;51.434;6.756;2023-12-29T08:30:30;10.30;99.90
50804;DHT22;37205;51.434;6.756;2023-12-29T08:32:59;10.30;99.90
50804;DHT22;37205;51.434;6.756;2023-12-29T08:35:24;10.30;99.90
50804;DHT22;37205;51.434;6.756;2023-12-29T08:37:50;10.30;99.90
50804;DHT22;37205;51.434;6.756;2023-12-29T08:40:16;10.30;99.90
50804;DHT22;37205;51.434;6.756;2023-12-29T08:42:41;10.30;99.90
50804;DHT22;37205;51.434;6.756;2023-12-29T08:45:07;10.30;99.90
50804;DHT22;37205;51.434;6.756;2023-12-29T08:47:32;10.30;99.90
50804;DHT22;37205;51.434;6.756;2023-12-29T08:49:58;10.30;99.90
50804;DHT22;37205;51.434;6.756;2023-12-29T08:52:24;10.30;99.90
50804;DHT22;37205;51.434;6.756;2023-12-29T08:54:49;10.40;99.90
50804;DHT22;37205;51.434;6.756;2023-12-29T08:57:15;10.40;99.90
50804;DHT22;37205;51.434;6.756;2023-12-29T08:59:40;10.40;99.90
50804;DHT22;37205;51.434;6.756;2023-12-29T09:02:06;10.40;99.90
50804;DHT22;37205;51.434;6.756;2023-12-29T09:04:31;10.50;99.90
50804;DHT22;37205;51.434;6.756;2023-12-29T09:06:57;10.40;99.90
50804;DHT22;37205;51.434;6.756;2023-12-29T09:09:22;10.40;99.90
50804;DHT22;37205;51.434;6.756;2023-12-29T09:11:48;10.40;99.90
50804;DHT22;37205;51.434;6.756;2023-12-29T09:14:14;10.40;99.90
50804;DHT22;37205;51.434;6.756;2023-12-29T09:16:39;10.40;99.90
50804;DHT22;37205;51.434;6.756;2023-12-29T09:19:07;10.40;99.90
50804;DHT22;37205;51.434;6.756;2023-12-29T09:21:33;10.50;99.90
50804;DHT22;37205;51.434;6.756;2023-12-29T09:23:58;10.60;99.90
50804;DHT22;37205;51.434;6.756;2023-12-29T09:26:24;10.70;99.90
50804;DHT22;37205;51.434;6.756;2023-12-29T09:28:50;10.70;99.90
50804;DHT22;37205;51.434;6.756;2023-12-29T09:31:15;10.70;99.90
50804;DHT22;37205;51.434;6.756;2023-12-29T09:33:41;10.90;99.90
50804;DHT22;37205;51.434;6.756;2023-12-29T09:36:06;10.80;72.40
50804;DHT22;37205;51.434;6.756;2023-12-29T09:38:33;10.70;70.00
50804;DHT22;37205;51.434;6.756;2023-12-29T09:41:02;10.70;88.20
50804;DHT22;37205;51.434;6.756;2023-12-29T09:43:31;10.60;99.90
50804;DHT22;37205;51.434;6.756;2023-12-29T09:45:58;10.50;99.90
50804;DHT22;37205;51.434;6.756;2023-12-29T09:48:26;10.50;99.90
50804;DHT22;37205;51.434;6.756;2023-12-29T09:50:52;10.50;99.90
50804;DHT22;37205;51.434;6.756;2023-12-29T09:53:20;10.50;99.90
50804;DHT22;37205;51.434;6.756;2023-12-29T09:55:48;10.50;99.90
50804;DHT22;37205;51.434;6.756;2023-12-29T09:58:15;10.40;99.90
50804;DHT22;37205;51.434;6.756;2023-12-29T10:00:43;10.30;99.90
50804;DHT22;37205;51.434;6.756;2023-12-29T10:03:10;10.30;99.90
50804;DHT22;37205;51.434;6.756;2023-12-29T10:05:35;10.30;99.90
50804;DHT22;37205;51.434;6.756;2023-12-29T10:08:03;10.30;99.90
50804;DHT22;37205;51.434;6.756;2023-12-29T10:10:31;10.20;99.90
50804;DHT22;37205;51.434;6.756;2023-12-29T10:12:57;10.20;99.90
50804;DHT22;37205;51.434;6.756;2023-12-29T10:15:36;10.20;99.90
50804;DHT22;37205;51.434;6.756;2023-12-29T10:23:20;10.20;99.90
50804;DHT22;37205;51.434;6.756;2023-12-29T10:25:47;10.20;99.90
50804;DHT22;37205;51.434;6.756;2023-12-29T10:28:13;10.20;99.90
50804;DHT22;37205;51.434;6.756;2023-12-29T10:30:38;10.20;99.90
50804;DHT22;37205;51.434;6.756;2023-12-29T10:33:05;10.20;99.90
50804;DHT22;37205;51.434;6.756;2023-12-29T10:35:31;10.20;99.90
50804;DHT22;37205;51.434;6.756;2023-12-29T10:38:12;10.20;99.90
50804;DHT22;37205;51.434;6.756;2023-12-29T10:40:39;10.20;99.90
50804;DHT22;37205;51.434;6.756;2023-12-29T10:43:04;10.20;99.90
50804;DHT22;37205;51.434;6.756;2023-12-29T10:45:33;10.30;99.90
50804;DHT22;37205;51.434;6.756;2023-12-29T10:48:01;10.40;99.90
50804;DHT22;37205;51.434;6.756;2023-12-29T10:50:27;10.40;99.90
50804;DHT22;37205;51.434;6.756;2023-12-29T10:53:12;10.50;99.90
50804;DHT22;37205;51.434;6.756;2023-12-29T10:55:38;10.50;99.90
50804;DHT22;37205;51.434;6.756;2023-12-29T10:58:03;10.50;99.90
50804;DHT22;37205;51.434;6.756;2023-12-29T11:00:30;10.60;99.90
50804;DHT22;37205;51.434;6.756;2023-12-29T11:02:57;10.60;99.90
50804;DHT22;37205;51.434;6.756;2023-12-29T11:05:25;10.70;99.30
50804;DHT22;37205;51.434;6.756;2023-12-29T11:07:51;10.70;99.90
50804;DHT22;37205;51.434;6.756;2023-12-29T11:10:20;10.70;99.90
50804;DHT22;37205;51.434;6.756;2023-12-29T11:12:47;10.80;99.90
50804;DHT22;37205;51.434;6.756;2023-12-29T11:15:14;10.90;99.90
50804;DHT22;37205;51.434;6.756;2023-12-29T11:17:42;10.90;99.90
50804;DHT22;37205;51.434;6.756;2023-12-29T11:20:17;10.90;99.90
50804;DHT22;37205;51.434;6.756;2023-12-29T11:22:46;11.00;99.90
50804;DHT22;37205;51.434;6.756;2023-12-29T11:25:12;11.00;99.90
50804;DHT22;37205;51.434;6.756;2023-12-29T11:27:38;11.00;99.90
50804;DHT22;37205;51.434;6.756;2023-12-29T11:30:04;11.00;99.90
50804;DHT22;37205;51.434;6.756;2023-12-29T11:32:40;11.00;99.90
50804;DHT22;37205;51.434;6.756;2023-12-29T11:35:25;11.10;99.90
50804;DHT22;37205;51.434;6.756;2023-12-29T11:40:44;11.10;99.90
50804;DHT22;37205;51.434;6.756;2023-12-29T11:43:16;11.10;99.90
50804;DHT22;37205;51.434;6.756;2023-12-29T11:45:42;11.10;97.70
50804;DHT22;37205;51.434;6.756;2023-12-29T11:48:07;11.20;97.10
50804;DHT22;37205;51.434;6.756;2023-12-29T11:50:37;11.20;99.90
50804;DHT22;37205;51.434;6.756;2023-12-29T11:53:04;11.20;98.80
50804;DHT22;37205;51.434;6.756;2023-12-29T11:55:31;11.20;97.20
50804;DHT22;37205;51.434;6.756;2023-12-29T11:57:58;11.20;99.90
50804;DHT22;37205;51.434;6.756;2023-12-29T12:00:56;11.20;99.90
50804;DHT22;37205;51.434;6.756;2023-12-29T12:03:26;11.20;99.90
50804;DHT22;37205;51.434;6.756;2023-12-29T12:05:54;11.20;99.90
50804;DHT22;37205;51.434;6.756;2023-12-29T12:08:35;11.20;99.90
50804;DHT22;37205;51.434;6.756;2023-12-29T12:13:54;11.20;99.90
50804;DHT22;37205;51.434;6.756;2023-12-29T12:19:13;11.20;99.90
50804;DHT22;37205;51.434;6.756;2023-12-29T12:21:40;11.20;99.90
50804;DHT22;37205;51.434;6.756;2023-12-29T12:24:06;11.20;99.90
50804;DHT22;37205;51.434;6.756;2023-12-29T12:26:32;11.10;99.90
50804;DHT22;37205;51.434;6.756;2023-12-29T12:28:58;11.10;99.90
50804;DHT22;37205;51.434;6.756;2023-12-29T12:31:24;11.10;99.90
50804;DHT22;37205;51.434;6.756;2023-12-29T12:33:56;11.10;99.90
50804;DHT22;37205;51.434;6.756;2023-12-29T12:36:22;11.00;99.90
50804;DHT22;37205;51.434;6.756;2023-12-29T12:38:55;11.00;99.90
50804;DHT22;37205;51.434;6.756;2023-12-29T12:41:25;11.00;99.90
50804;DHT22;37205;51.434;6.756;2023-12-29T12:44:11;11.00;99.90
50804;DHT22;37205;51.434;6.756;2023-12-29T12:46:41;10.90;99.90
50804;DHT22;37205;51.434;6.756;2023-12-29T12:49:10;10.80;99.90
50804;DHT22;37205;51.434;6.756;2023-12-29T12:51:35;10.80;99.90
50804;DHT22;37205;51.434;6.756;2023-12-29T12:54:01;10.70;99.90
50804;DHT22;37205;51.434;6.756;2023-12-29T12:56:27;10.80;99.90
50804;DHT22;37205;51.434;6.756;2023-12-29T12:58:57;10.80;99.90
50804;DHT22;37205;51.434;6.756;2023-12-29T13:01:24;10.70;99.90
50804;DHT22;37205;51.434;6.756;2023-12-29T13:03:50;10.80;99.90
50804;DHT22;37205;51.434;6.756;2023-12-29T13:06:16;10.80;99.90
50804;DHT22;37205;51.434;6.756;2023-12-29T13:08:43;10.80;99.90
50804;DHT22;37205;51.434;6.756;2023-12-29T13:11:09;10.80;99.90
50804;DHT22;37205;51.434;6.756;2023-12-29T13:13:39;10.80;99.90
50804;DHT22;37205;51.434;6.756;2023-12-29T13:16:05;10.80;99.90
50804;DHT22;37205;51.434;6.756;2023-12-29T13:18:31;10.80;99.90
50804;DHT22;37205;51.434;6.756;2023-12-29T13:21:03;10.80;99.90
50804;DHT22;37205;51.434;6.756;2023-12-29T13:23:29;10.80;99.90
50804;DHT22;37205;51.434;6.756;2023-12-29T13:25:57;10.80;99.90
50804;DHT22;37205;51.434;6.756;2023-12-29T13:28:25;10.80;99.90
50804;DHT22;37205;51.434;6.756;2023-12-29T13:30:52;10.80;99.90
50804;DHT22;37205;51.434;6.756;2023-12-29T13:36:24;10.90;99.90
50804;DHT22;37205;51.434;6.756;2023-12-29T13:38:56;10.90;99.90
50804;DHT22;37205;51.434;6.756;2023-12-29T13:41:24;10.90;99.90
50804;DHT22;37205;51.434;6.756;2023-12-29T13:43:51;10.90;99.90
50804;DHT22;37205;51.434;6.756;2023-12-29T13:46:18;10.90;99.90
50804;DHT22;37205;51.434;6.756;2023-12-29T13:48:47;11.00;99.90
50804;DHT22;37205;51.434;6.756;2023-12-29T13:51:16;11.00;99.90
50804;DHT22;37205;51.434;6.756;2023-12-29T13:53:41;11.00;99.90
50804;DHT22;37205;51.434;6.756;2023-12-29T13:56:08;11.00;99.90
50804;DHT22;37205;51.434;6.756;2023-12-29T13:58:34;11.00;99.90
50804;DHT22;37205;51.434;6.756;2023-12-29T14:01:00;11.10;99.90
50804;DHT22;37205;51.434;6.756;2023-12-29T14:03:32;11.10;99.90
50804;DHT22;37205;51.434;6.756;2023-12-29T14:06:03;11.00;99.90
50804;DHT22;37205;51.434;6.756;2023-12-29T14:08:45;11.10;99.90
50804;DHT22;37205;51.434;6.756;2023-12-29T14:11:11;11.10;99.90
50804;DHT22;37205;51.434;6.756;2023-12-29T14:13:44;11.10;99.90
50804;DHT22;37205;51.434;6.756;2023-12-29T14:16:10;11.10;99.90
50804;DHT22;37205;51.434;6.756;2023-12-29T14:21:28;11.10;99.90
50804;DHT22;37205;51.434;6.756;2023-12-29T14:24:10;11.10;99.90
50804;DHT22;37205;51.434;6.756;2023-12-29T14:26:39;11.00;99.90
50804;DHT22;37205;51.434;6.756;2023-12-29T14:29:08;11.10;99.90
50804;DHT22;37205;51.434;6.756;2023-12-29T14:31:38;11.10;99.90
50804;DHT22;37205;51.434;6.756;2023-12-29T14:34:08;11.10;91.60
50804;DHT22;37205;51.434;6.756;2023-12-29T14:36:34;11.00;70.80
50804;DHT22;37205;51.434;6.756;2023-12-29T14:39:00;11.10;59.10
50804;DHT22;37205;51.434;6.756;2023-12-29T14:41:26;11.10;49.20
50804;DHT22;37205;51.434;6.756;2023-12-29T14:43:52;11.00;55.70
50804;DHT22;37205;51.434;6.756;2023-12-29T14:46:18;11.00;48.70
50804;DHT22;37205;51.434;6.756;2023-12-29T14:48:44;11.00;50.70
50804;DHT22;37205;51.434;6.756;2023-12-29T14:51:10;11.00;39.50
50804;DHT22;37205;51.434;6.756;2023-12-29T14:53:36;11.00;41.20
50804;DHT22;37205;51.434;6.756;2023-12-29T14:56:02;11.00;26.50
50804;DHT22;37205;51.434;6.756;2023-12-29T14:58:27;11.00;25.60
50804;DHT22;37205;51.434;6.756;2023-12-29T15:00:53;10.90;28.00
50804;DHT22;37205;51.434;6.756;2023-12-29T15:03:18;10.90;25.20
50804;DHT22;37205;51.434;6.756;2023-12-29T15:05:46;10.90;35.10
50804;DHT22;37205;51.434;6.756;2023-12-29T15:08:12;10.90;44.00
50804;DHT22;37205;51.434;6.756;2023-12-29T15:10:38;10.80;64.90
50804;DHT22;37205;51.434;6.756;2023-12-29T15:13:04;10.80;79.90
50804;DHT22;37205;51.434;6.756;2023-12-29T15:15:31;10.80;91.90
50804;DHT22;37205;51.434;6.756;2023-12-29T15:17:57;10.80;99.90
50804;DHT22;37205;51.434;6.756;2023-12-29T15:20:22;10.70;99.90
50804;DHT22;37205;51.434;6.756;2023-12-29T15:22:48;10.70;99.90
50804;DHT22;37205;51.434;6.756;2023-12-29T15:25:14;10.70;99.90
50804;DHT22;37205;51.434;6.756;2023-12-29T15:27:41;10.70;99.90
50804;DHT22;37205;51.434;6.756;2023-12-29T15:30:08;10.70;99.90
50804;DHT22;37205;51.434;6.756;2023-12-29T15:32:35;10.70;99.90
50804;DHT22;37205;51.434;6.756;2023-12-29T15:35:00;10.60;99.90
50804;DHT22;37205;51.434;6.756;2023-12-29T15:37:26;10.60;99.90
50804;DHT22;37205;51.434;6.756;2023-12-29T15:39:51;10.50;99.90
50804;DHT22;37205;51.434;6.756;2023-12-29T15:42:17;10.50;99.90
50804;DHT22;37205;51.434;6.756;2023-12-29T15:44:42;10.50;99.90
50804;DHT22;37205;51.434;6.756;2023-12-29T15:47:08;10.50;99.90
50804;DHT22;37205;51.434;6.756;2023-12-29T15:49:37;10.50;99.90
50804;DHT22;37205;51.434;6.756;2023-12-29T15:52:03;10.40;99.90
50804;DHT22;37205;51.434;6.756;2023-12-29T15:54:28;10.40;99.90